createdAt,value
2018-11-05T00:00:21.841Z,55.90
2018-11-05T00:02:52.843Z,57.43
2018-11-05T00:05:27.082Z,55.13
2018-11-05T00:07:57.101Z,60.20
2018-11-05T00:10:27.161Z,56.00
2018-11-05T00:12:57.400Z,54.87
2018-11-05T00:15:27.320Z,55.90
2018-11-05T00:17:57.460Z,57.80
2018-11-05T00:20:32.481Z,57.97
2018-11-05T00:23:04.163Z,53.93
2018-11-05T00:25:36.442Z,54.27
2018-11-05T00:28:08.121Z,53.67
2018-11-05T00:30:40.481Z,56.43
2018-11-05T00:33:11.720Z,55.53
2018-11-05T00:35:44.239Z,56.47
2018-11-05T00:38:16.722Z,53.20
2018-11-05T00:40:48.698Z,60.50
2018-11-05T00:43:20.078Z,56.63
2018-11-05T00:46:24.479Z,59.53
2018-11-05T00:48:55.079Z,73.07
2018-11-05T00:51:25.178Z,62.17
2018-11-05T00:53:55.359Z,86.20
2018-11-05T00:56:25.438Z,59.47
2018-11-05T00:58:55.198Z,60.50
2018-11-05T01:01:25.321Z,61.97
2018-11-05T01:03:55.344Z,59.93
2018-11-05T01:06:26.581Z,58.30
2018-11-05T01:08:56.543Z,62.70
2018-11-05T01:11:26.421Z,56.63
2018-11-05T01:13:56.524Z,61.07
2018-11-05T01:16:26.341Z,58.47
2018-11-05T01:18:56.610Z,62.13
2018-11-05T01:21:26.462Z,59.70
2018-11-05T01:23:56.309Z,55.70
2018-11-05T01:26:27.121Z,55.77
2018-11-05T01:29:00.961Z,55.47
2018-11-05T01:31:30.702Z,57.20
2018-11-05T01:34:01.184Z,55.20
2018-11-05T01:36:31.184Z,55.03
2018-11-05T01:39:01.262Z,53.33
2018-11-05T01:41:32.942Z,53.83
2018-11-05T01:44:03.022Z,53.87
2018-11-05T01:46:33.122Z,53.20
2018-11-05T01:49:02.944Z,52.43
2018-11-05T01:51:37.561Z,53.80
2018-11-05T01:54:07.449Z,56.93
2018-11-05T01:56:39.345Z,56.53
2018-11-05T01:59:09.322Z,55.10
2018-11-05T02:01:39.102Z,56.60
2018-11-05T02:04:09.042Z,55.07
2018-11-05T02:06:39.142Z,53.93
2018-11-05T02:09:10.201Z,55.80
2018-11-05T02:11:40.562Z,54.70
2018-11-05T02:14:10.402Z,51.63
2018-11-05T02:16:40.246Z,55.37
2018-11-05T02:19:15.721Z,56.43
2018-11-05T02:21:45.719Z,62.10
2018-11-05T02:24:15.780Z,54.87
2018-11-05T02:26:48.066Z,57.17
2018-11-05T02:29:30.600Z,65.87
2018-11-05T02:32:00.420Z,58.50
2018-11-05T02:34:30.300Z,62.37
2018-11-05T02:37:00.080Z,57.63
2018-11-05T02:39:30.500Z,54.27
2018-11-05T02:42:00.719Z,56.50
2018-11-05T02:44:30.860Z,51.73
2018-11-05T02:47:00.620Z,51.50
2018-11-05T02:49:30.700Z,51.47
2018-11-05T02:52:00.780Z,47.83
2018-11-05T02:54:30.900Z,48.77
2018-11-05T02:57:00.940Z,48.83
2018-11-05T02:59:30.920Z,48.47
2018-11-05T03:02:00.783Z,49.80
2018-11-05T03:04:30.920Z,52.00
2018-11-05T03:07:00.941Z,52.07
2018-11-05T03:09:32.401Z,50.93
2018-11-05T03:12:02.381Z,53.97
2018-11-05T03:14:32.220Z,51.70
2018-11-05T03:17:02.680Z,51.20
2018-11-05T03:19:32.940Z,53.33
2018-11-05T03:22:03.000Z,54.03
2018-11-05T03:24:32.780Z,51.77
2018-11-05T03:27:02.780Z,50.87
2018-11-05T03:29:32.621Z,51.03
2018-11-05T03:32:02.380Z,49.03
2018-11-05T03:34:32.501Z,48.30
2018-11-05T03:37:02.821Z,49.93
2018-11-05T03:39:33.901Z,47.50
2018-11-05T03:42:03.761Z,51.00
2018-11-05T03:44:33.700Z,51.10
2018-11-05T03:47:05.661Z,49.40
2018-11-05T03:49:35.821Z,51.50
2018-11-05T03:52:06.291Z,54.77
2018-11-05T03:54:36.301Z,55.70
2018-11-05T03:57:14.361Z,52.20
2018-11-05T03:59:44.321Z,53.00
2018-11-05T04:02:14.521Z,53.47
2018-11-05T04:04:45.838Z,59.47
2018-11-05T04:07:15.658Z,51.63
2018-11-05T04:09:45.698Z,54.17
2018-11-05T04:12:15.501Z,51.13
2018-11-05T04:14:45.579Z,53.70
2018-11-05T04:17:15.718Z,50.63
2018-11-05T04:19:46.023Z,52.27
2018-11-05T04:22:16.220Z,55.20
2018-11-05T04:24:50.379Z,51.73
2018-11-05T04:27:20.099Z,55.97
2018-11-05T04:29:50.538Z,55.90
2018-11-05T04:32:20.899Z,68.33
2018-11-05T04:34:50.720Z,63.30
2018-11-05T04:37:20.798Z,80.57
2018-11-05T04:39:51.139Z,76.57
2018-11-05T04:42:22.247Z,65.83
2018-11-05T04:44:52.238Z,67.97
2018-11-05T04:47:22.439Z,87.37
2018-11-05T04:49:58.660Z,65.60
2018-11-05T04:52:29.922Z,69.23
2018-11-05T04:54:59.939Z,61.63
2018-11-05T04:57:30.081Z,63.10
2018-11-05T05:00:04.079Z,68.70
2018-11-05T05:02:34.269Z,71.17
2018-11-05T05:05:04.660Z,57.90
2018-11-05T05:07:34.881Z,62.17
2018-11-05T05:10:05.266Z,58.77
2018-11-05T05:12:35.121Z,59.03
2018-11-05T05:15:06.721Z,60.47
2018-11-05T05:17:36.421Z,60.77
2018-11-05T05:20:11.101Z,61.50
2018-11-05T05:22:41.330Z,58.47
2018-11-05T05:25:11.200Z,57.03
2018-11-05T05:27:41.220Z,57.73
2018-11-05T05:30:14.543Z,58.70
2018-11-05T05:32:45.284Z,58.20
2018-11-05T05:35:15.719Z,57.37
2018-11-05T05:37:45.460Z,55.90
2018-11-05T05:40:15.399Z,57.97
2018-11-05T05:42:45.582Z,57.03
2018-11-05T05:45:15.722Z,52.73
2018-11-05T05:47:46.060Z,52.17
2018-11-05T05:50:17.847Z,52.73
2018-11-05T05:52:49.419Z,52.20
2018-11-05T05:55:19.619Z,51.67
2018-11-05T05:57:49.419Z,52.77
2018-11-05T06:00:21.264Z,52.23
2018-11-05T06:02:51.749Z,54.80
2018-11-05T06:05:21.781Z,56.20
2018-11-05T06:07:51.521Z,57.30
2018-11-05T06:10:21.262Z,55.77
2018-11-05T06:12:51.241Z,52.13
2018-11-05T06:15:21.424Z,55.77
2018-11-05T06:17:51.461Z,54.70
2018-11-05T06:20:22.940Z,54.37
2018-11-05T06:22:53.901Z,52.97
2018-11-05T06:25:23.642Z,49.73
2018-11-05T06:27:53.339Z,52.30
2018-11-05T06:30:24.579Z,51.23
2018-11-05T06:32:54.580Z,51.70
2018-11-05T06:35:24.748Z,52.77
2018-11-05T06:37:54.663Z,47.43
2018-11-05T06:40:24.559Z,47.67
2018-11-05T06:42:54.378Z,48.47
2018-11-05T06:45:24.644Z,47.60
2018-11-05T06:47:54.759Z,45.13
2018-11-05T06:50:26.700Z,44.43
2018-11-05T06:52:57.170Z,45.03
2018-11-05T06:55:26.862Z,44.07
2018-11-05T06:57:56.524Z,46.10
2018-11-05T07:00:27.493Z,42.43
2018-11-05T07:02:57.437Z,39.93
2018-11-05T07:05:35.539Z,42.67
2018-11-05T07:08:05.188Z,40.70
2018-11-05T07:10:34.814Z,37.77
2018-11-05T07:13:04.382Z,38.80
2018-11-05T07:15:34.161Z,38.90
2018-11-05T07:18:08.543Z,36.83
2018-11-05T07:20:43.409Z,36.23
2018-11-05T07:23:13.032Z,33.93
2018-11-05T07:25:51.089Z,33.77
2018-11-05T07:28:20.574Z,34.53
2018-11-05T07:30:55.643Z,34.13
2018-11-05T07:33:25.632Z,35.40
2018-11-05T07:35:55.819Z,33.53
2018-11-05T07:38:25.677Z,35.07
2018-11-05T07:40:55.637Z,32.77
2018-11-05T07:43:25.538Z,34.20
2018-11-05T07:46:11.219Z,32.10
2018-11-05T07:48:41.270Z,32.63
2018-11-05T07:51:11.319Z,32.53
2018-11-05T07:53:41.439Z,33.53
2018-11-05T07:56:11.193Z,34.13
2018-11-05T07:58:41.261Z,31.13
2018-11-05T08:01:11.358Z,31.57
2018-11-05T08:03:41.418Z,31.97
2018-11-05T08:06:11.820Z,31.33
2018-11-05T08:08:41.998Z,30.60
2018-11-05T08:11:12.238Z,29.87
2018-11-05T08:13:42.060Z,30.57
2018-11-05T08:16:12.358Z,29.87
2018-11-05T08:18:42.618Z,30.50
2018-11-05T08:21:12.726Z,29.37
2018-11-05T08:23:43.180Z,29.57
2018-11-05T08:26:13.978Z,29.73
2018-11-05T08:28:44.224Z,26.77
2018-11-05T08:31:14.538Z,26.10
2018-11-05T08:33:46.280Z,27.23
2018-11-05T08:36:16.181Z,24.27
2018-11-05T08:41:20.041Z,24.57
2018-11-05T08:43:50.221Z,24.60
2018-11-05T08:46:20.260Z,24.87
2018-11-05T08:48:50.127Z,23.40
2018-11-05T08:51:20.484Z,22.83
2018-11-05T08:53:50.325Z,23.77
2018-11-05T08:56:20.159Z,23.47
2018-11-05T08:58:50.219Z,22.80
2018-11-05T09:01:20.191Z,24.43
2018-11-05T09:03:51.172Z,24.40
2018-11-05T09:06:21.185Z,22.17
2018-11-05T09:08:51.704Z,24.27
2018-11-05T09:11:26.595Z,24.77
2018-11-05T09:13:56.104Z,23.23
2018-11-05T09:16:26.063Z,22.50
2018-11-05T09:18:55.844Z,22.73
2018-11-05T09:21:25.623Z,24.43
2018-11-05T09:23:59.464Z,21.87
2018-11-05T09:26:30.184Z,23.23
2018-11-05T09:29:00.304Z,23.90
2018-11-05T09:31:30.004Z,21.20
2018-11-05T09:33:59.804Z,23.27
2018-11-05T09:36:31.066Z,22.53
2018-11-05T09:39:02.627Z,22.40
2018-11-05T09:41:32.340Z,21.90
2018-11-05T09:44:02.780Z,21.87
2018-11-05T09:46:32.741Z,20.50
2018-11-05T09:49:02.800Z,20.23
2018-11-05T09:51:32.961Z,20.83
2018-11-05T09:54:02.900Z,20.03
2018-11-05T09:56:32.981Z,20.63
2018-11-05T09:59:02.860Z,20.53
2018-11-05T10:01:33.522Z,18.97
2018-11-05T10:04:03.928Z,18.50
2018-11-05T10:06:34.042Z,19.53
2018-11-05T10:09:04.002Z,18.57
2018-11-05T10:11:33.742Z,20.27
2018-11-05T10:14:03.961Z,20.20
2018-11-05T10:19:22.702Z,18.87
2018-11-05T10:21:52.882Z,18.93
2018-11-05T10:24:22.752Z,19.77
2018-11-05T10:26:53.920Z,19.57
2018-11-05T10:29:24.061Z,18.83
2018-11-05T10:31:53.740Z,18.90
2018-11-05T10:34:30.383Z,18.43
2018-11-05T10:37:00.640Z,18.87
2018-11-05T10:39:30.521Z,18.63
2018-11-05T10:42:00.441Z,18.20
2018-11-05T10:44:30.222Z,18.10
2018-11-05T10:47:00.046Z,19.23
2018-11-05T10:49:30.105Z,18.10
2018-11-05T10:52:00.224Z,18.50
2018-11-05T10:54:29.803Z,17.70
2018-11-05T10:57:00.044Z,18.83
2018-11-05T10:59:30.240Z,19.13
2018-11-05T11:02:05.624Z,18.33
2018-11-05T11:04:36.644Z,18.30
2018-11-05T11:07:11.224Z,18.47
2018-11-05T11:09:41.220Z,18.73
2018-11-05T11:12:10.994Z,20.40
2018-11-05T11:14:41.105Z,19.97
2018-11-05T11:17:10.588Z,20.50
2018-11-05T11:19:47.763Z,19.50
2018-11-05T11:22:17.722Z,19.87
2018-11-05T11:24:48.143Z,21.50
2018-11-05T11:27:22.823Z,21.80
2018-11-05T11:29:52.784Z,20.37
2018-11-05T11:32:23.504Z,21.27
2018-11-05T11:34:57.764Z,21.63
2018-11-05T11:37:27.844Z,20.37
2018-11-05T11:39:57.683Z,21.80
2018-11-05T11:42:27.984Z,22.70
2018-11-05T11:44:58.223Z,22.83
2018-11-05T11:47:27.903Z,22.50
2018-11-05T11:50:02.644Z,21.20
2018-11-05T11:52:32.832Z,22.97
2018-11-05T11:55:03.078Z,22.47
2018-11-05T11:57:33.483Z,22.63
2018-11-05T12:00:03.423Z,20.70
2018-11-05T12:02:33.483Z,22.30
2018-11-05T12:05:03.143Z,23.77
2018-11-05T12:07:33.180Z,25.13
2018-11-05T12:10:04.564Z,24.90
2018-11-05T12:12:35.040Z,24.63
2018-11-05T12:15:04.985Z,25.10
2018-11-05T12:17:34.901Z,25.57
2018-11-05T12:20:04.616Z,24.17
2018-11-05T12:22:36.940Z,24.13
2018-11-05T12:25:07.119Z,25.77
2018-11-05T12:27:37.420Z,24.50
2018-11-05T12:30:12.680Z,24.40
2018-11-05T12:32:43.001Z,24.43
2018-11-05T12:35:14.021Z,23.30
2018-11-05T12:37:44.960Z,25.83
2018-11-05T12:40:17.041Z,23.97
2018-11-05T12:42:48.344Z,24.43
2018-11-05T12:45:18.242Z,26.10
2018-11-05T12:47:48.720Z,24.97
2018-11-05T12:50:23.210Z,24.40
2018-11-05T12:52:54.420Z,25.47
2018-11-05T12:55:24.579Z,25.73
2018-11-05T12:57:54.380Z,26.47
2018-11-05T13:00:25.663Z,25.93
2018-11-05T13:02:58.069Z,25.47
2018-11-05T13:05:29.152Z,26.63
2018-11-05T13:07:59.789Z,26.60
2018-11-05T13:10:29.928Z,26.73
2018-11-05T13:13:00.084Z,27.40
2018-11-05T13:15:30.069Z,27.77
2018-11-05T13:18:00.150Z,27.40
2018-11-05T13:20:29.951Z,26.93
2018-11-05T13:23:00.797Z,26.30
2018-11-05T13:25:36.581Z,25.13
2018-11-05T13:28:10.964Z,26.97
2018-11-05T13:30:41.120Z,26.07
2018-11-05T13:33:12.120Z,26.07
2018-11-05T13:35:42.360Z,28.60
2018-11-05T13:38:12.845Z,27.83
2018-11-05T13:40:42.220Z,28.97
2018-11-05T13:43:12.150Z,27.80
2018-11-05T13:45:42.193Z,28.60
2018-11-05T13:48:16.138Z,30.83
2018-11-05T13:50:45.823Z,32.40
2018-11-05T13:53:16.360Z,33.30
2018-11-05T13:55:46.307Z,33.00
2018-11-05T13:58:21.148Z,32.27
2018-11-05T14:00:51.049Z,32.90
2018-11-05T14:03:28.800Z,33.47
2018-11-05T14:05:59.002Z,32.40
2018-11-05T14:08:28.963Z,35.23
2018-11-05T14:10:59.354Z,34.03
2018-11-05T14:13:29.228Z,35.40
2018-11-05T14:15:58.959Z,34.00
2018-11-05T14:18:29.045Z,34.40
2018-11-05T14:20:58.872Z,34.17
2018-11-05T14:23:34.819Z,33.67
2018-11-05T14:26:04.803Z,33.87
2018-11-05T14:28:39.119Z,33.97
2018-11-05T14:31:08.967Z,32.10
2018-11-05T14:33:54.946Z,32.13
2018-11-05T14:36:25.066Z,32.00
2018-11-05T14:38:55.279Z,33.03
2018-11-05T14:41:25.060Z,33.87
2018-11-05T14:43:54.900Z,35.07
2018-11-05T14:46:25.029Z,33.63
2018-11-05T14:48:54.815Z,34.53
2018-11-05T14:51:24.881Z,34.27
2018-11-05T14:53:54.622Z,35.77
2018-11-05T14:56:24.642Z,34.13
2018-11-05T14:58:55.038Z,33.57
2018-11-05T15:01:25.279Z,35.17
2018-11-05T15:03:55.142Z,36.37
2018-11-05T15:06:25.169Z,35.67
2018-11-05T15:08:55.187Z,35.40
2018-11-05T15:11:25.079Z,37.73
2018-11-05T15:14:03.305Z,37.13
2018-11-05T15:16:33.599Z,37.80
2018-11-05T15:19:04.456Z,36.37
2018-11-05T15:21:34.078Z,37.80
2018-11-05T15:24:09.527Z,38.17
2018-11-05T15:26:39.727Z,37.43
2018-11-05T15:29:09.501Z,41.57
2018-11-05T15:31:39.662Z,41.93
2018-11-05T15:34:10.236Z,45.07
2018-11-05T15:36:40.607Z,40.27
2018-11-05T15:39:10.699Z,41.07
2018-11-05T15:41:41.160Z,41.43
2018-11-05T15:44:11.396Z,39.83
2018-11-05T15:46:41.271Z,39.83
2018-11-05T15:49:11.064Z,39.17
2018-11-05T15:51:46.303Z,40.97
2018-11-05T15:54:16.456Z,40.90
2018-11-05T15:56:46.667Z,37.93
2018-11-05T15:59:17.489Z,38.93
2018-11-05T16:01:47.664Z,39.07
2018-11-05T16:04:17.664Z,40.27
2018-11-05T16:06:47.508Z,39.20
2018-11-05T16:09:17.613Z,40.53
2018-11-05T16:11:47.696Z,39.40
2018-11-05T16:14:17.541Z,42.43
2018-11-05T16:16:47.609Z,42.63
2018-11-05T16:19:17.635Z,46.70
2018-11-05T16:21:48.004Z,43.77
2018-11-05T16:24:19.958Z,40.90
2018-11-05T16:27:02.330Z,42.00
2018-11-05T16:29:32.645Z,43.27
2018-11-05T16:32:02.424Z,45.10
2018-11-05T16:34:36.445Z,43.90
2018-11-05T16:37:06.549Z,43.20
2018-11-05T16:39:37.137Z,44.27
2018-11-05T16:42:07.547Z,45.90
2018-11-05T16:44:37.661Z,44.47
2018-11-05T16:47:07.680Z,46.53
2018-11-05T16:49:37.764Z,46.17
2018-11-05T16:52:09.488Z,47.53
2018-11-05T16:54:41.862Z,47.87
2018-11-05T16:57:14.466Z,45.57
2018-11-05T16:59:45.767Z,45.83
2018-11-05T17:02:18.193Z,45.07
2018-11-05T17:04:49.021Z,45.73
2018-11-05T17:07:19.539Z,43.43
2018-11-05T17:09:55.496Z,41.80
2018-11-05T17:12:25.719Z,44.87
2018-11-05T17:14:56.486Z,44.47
2018-11-05T17:17:27.790Z,45.93
2018-11-05T17:20:03.470Z,46.70
2018-11-05T17:22:33.781Z,44.93
2018-11-05T17:25:06.686Z,47.80
2018-11-05T17:27:37.658Z,47.83
2018-11-05T17:30:12.325Z,46.17
2018-11-05T17:32:42.981Z,48.50
2018-11-05T17:35:13.375Z,46.47
2018-11-05T17:37:44.350Z,46.97
2018-11-05T17:40:20.119Z,48.30
2018-11-05T17:42:49.639Z,46.70
2018-11-05T17:45:20.370Z,45.83
2018-11-05T17:47:50.629Z,48.63
2018-11-05T17:50:21.865Z,49.57
2018-11-05T17:52:51.761Z,53.27
2018-11-05T17:55:23.734Z,53.80
2018-11-05T17:57:53.491Z,52.47
2018-11-05T18:00:26.092Z,52.00
2018-11-05T18:02:56.564Z,52.70
2018-11-05T18:05:26.663Z,52.60
2018-11-05T18:07:56.890Z,51.13
2018-11-05T18:10:26.685Z,51.10
2018-11-05T18:12:56.843Z,53.37
2018-11-05T18:15:27.221Z,52.27
2018-11-05T18:17:57.579Z,51.73
2018-11-05T18:20:27.884Z,52.70
2018-11-05T18:22:58.065Z,52.10
2018-11-05T18:25:28.359Z,52.10
2018-11-05T18:27:58.744Z,50.40
2018-11-05T18:30:28.628Z,51.57
2018-11-05T18:32:59.046Z,51.57
2018-11-05T18:35:34.020Z,52.93
2018-11-05T18:38:03.842Z,49.03
2018-11-05T18:40:33.782Z,52.73
2018-11-05T18:43:04.032Z,52.40
2018-11-05T18:45:34.156Z,53.30
2018-11-05T18:48:05.279Z,51.77
2018-11-05T18:50:35.709Z,50.13
2018-11-05T18:53:06.532Z,51.33
2018-11-05T18:55:36.822Z,52.20
2018-11-05T18:58:11.019Z,53.27
2018-11-05T19:00:46.586Z,51.77
2018-11-05T19:03:16.415Z,49.60
2018-11-05T19:05:46.941Z,50.97
2018-11-05T19:08:16.822Z,51.53
2018-11-05T19:10:47.016Z,50.63
2018-11-05T19:13:17.200Z,50.27
2018-11-05T19:15:48.335Z,50.27
2018-11-05T19:18:18.781Z,55.60
2018-11-05T19:20:53.847Z,54.37
2018-11-05T19:23:24.145Z,49.93
2018-11-05T19:25:54.485Z,52.47
2018-11-05T19:28:25.040Z,53.30
2018-11-05T19:30:55.191Z,53.17
2018-11-05T19:33:25.323Z,52.60
2018-11-05T19:35:55.098Z,53.10
2018-11-05T19:38:25.131Z,53.53
2018-11-05T19:40:55.200Z,54.83
2018-11-05T19:43:29.500Z,54.47
2018-11-05T19:46:04.010Z,55.50
2018-11-05T19:48:34.420Z,56.07
2018-11-05T19:51:04.072Z,53.43
2018-11-05T19:53:33.941Z,56.53
2018-11-05T19:56:03.927Z,57.70
2018-11-05T19:58:33.748Z,52.63
2018-11-05T20:03:38.600Z,54.40
2018-11-05T20:06:09.986Z,50.30
2018-11-05T20:08:40.484Z,52.90
2018-11-05T20:13:44.802Z,51.17
2018-11-05T20:16:15.205Z,52.47
2018-11-05T20:18:52.717Z,51.00
2018-11-05T20:23:56.968Z,52.93
2018-11-05T20:26:27.871Z,50.63
2018-11-05T20:28:57.912Z,52.17
2018-11-05T20:31:28.065Z,51.33
2018-11-05T20:33:58.264Z,54.00
2018-11-05T20:36:28.305Z,54.67
2018-11-05T20:39:04.363Z,55.20
2018-11-05T20:41:34.569Z,53.30
2018-11-05T20:44:08.164Z,57.50
2018-11-05T20:46:38.031Z,56.93
2018-11-05T20:49:08.425Z,60.40
2018-11-05T20:51:38.861Z,58.60
2018-11-05T20:54:15.882Z,59.07
2018-11-05T20:56:47.607Z,58.00
2018-11-05T20:59:17.605Z,57.80
2018-11-05T21:01:47.603Z,54.13
2018-11-05T21:04:17.644Z,58.07
2018-11-05T21:06:47.802Z,58.57
2018-11-05T21:09:22.143Z,55.87
2018-11-05T21:11:53.123Z,55.70
2018-11-05T21:14:27.073Z,56.63
2018-11-05T21:16:59.072Z,55.70
2018-11-05T21:19:29.188Z,58.37
2018-11-05T21:21:59.474Z,58.13
2018-11-05T21:24:29.540Z,60.93
2018-11-05T21:26:59.706Z,58.97
2018-11-05T21:29:29.601Z,59.10
2018-11-05T21:31:59.521Z,63.70
2018-11-05T21:34:29.583Z,63.33
2018-11-05T21:37:00.748Z,68.53
2018-11-05T21:39:30.860Z,70.57
2018-11-05T21:42:00.631Z,65.10
2018-11-05T21:44:30.454Z,66.27
2018-11-05T21:47:00.666Z,63.93
2018-11-05T21:49:30.707Z,62.97
2018-11-05T21:52:00.529Z,63.13
2018-11-05T21:54:30.682Z,62.17
2018-11-05T21:57:00.159Z,63.53
2018-11-05T21:59:33.937Z,63.03
2018-11-05T22:02:04.357Z,63.23
2018-11-05T22:04:34.486Z,64.10
2018-11-05T22:07:04.562Z,60.77
2018-11-05T22:09:34.556Z,69.17
2018-11-05T22:12:04.643Z,69.03
2018-11-05T22:14:34.664Z,74.00
2018-11-05T22:17:04.681Z,71.57
2018-11-05T22:22:08.264Z,66.97
2018-11-05T22:24:37.964Z,67.77
2018-11-05T22:27:17.060Z,73.43
2018-11-05T22:29:46.924Z,67.00
2018-11-05T22:32:16.804Z,66.73
2018-11-05T22:34:46.564Z,67.13
2018-11-05T22:37:17.021Z,67.30
2018-11-05T22:39:47.026Z,66.90
2018-11-05T22:42:17.047Z,63.80
2018-11-05T22:44:47.206Z,62.50
2018-11-05T22:47:17.165Z,60.67
2018-11-05T22:49:47.284Z,65.23
2018-11-05T22:52:19.023Z,63.57
2018-11-05T22:54:49.243Z,60.70
2018-11-05T22:57:19.183Z,57.17
2018-11-05T22:59:48.944Z,58.03
2018-11-05T23:02:19.150Z,58.40
2018-11-05T23:04:49.440Z,55.97
2018-11-05T23:07:19.259Z,55.97
2018-11-05T23:09:49.220Z,55.80
2018-11-05T23:12:23.640Z,60.57
2018-11-05T23:14:53.979Z,61.63
2018-11-05T23:17:24.165Z,59.60
2018-11-05T23:19:58.398Z,62.20
2018-11-05T23:22:32.758Z,59.63
2018-11-05T23:25:03.043Z,59.30
2018-11-05T23:27:37.179Z,59.10
2018-11-05T23:30:09.418Z,60.33
2018-11-05T23:32:40.278Z,59.90
2018-11-05T23:35:11.058Z,60.43
2018-11-05T23:37:42.218Z,60.37
2018-11-05T23:40:12.339Z,63.57
2018-11-05T23:42:42.318Z,64.50
2018-11-05T23:45:16.818Z,62.17
2018-11-05T23:47:47.099Z,60.70
2018-11-05T23:50:17.441Z,60.90
2018-11-05T23:52:47.498Z,63.37
2018-11-05T23:55:17.379Z,61.63
2018-11-05T23:57:47.678Z,64.67
